Time;durP1;ratioP1;P1;durP2;ratioP2;P2;SDS_P1;SDS_P2;PMS_P1;PMS_P2;Temp;Humidity;BMP_temperature;BMP_pressure;BME280_temperature;BME280_humidity;BME280_pressure;Samples;Min_cycle;Max_cycle;Signal;HPM_P1;HPM_P2
2021/05/15 00:00:44;;;;;;;4.43;4.10;;;;;;;;;;5047320;28;20481;-85
2021/05/15 00:03:13;;;;;;;5.07;4.67;;;;;;;;;;5028523;28;20422;-86
2021/05/15 00:05:42;;;;;;;4.70;3.97;;;;;;;;;;5043396;28;20421;-86
2021/05/15 00:08:20;;;;;;;4.20;3.87;;;;;;;;;;5027631;28;20441;-86
2021/05/15 00:11:04;;;;;;;4.73;4.33;;;;;;;;;;5011819;28;20753;-86
2021/05/15 00:13:41;;;;;;;7.73;4.67;;;;;;;;;;5027725;28;20480;-87
2021/05/15 00:16:30;;;;;;;6.17;5.57;;;;;;;;;;5028009;28;20414;-87
2021/05/15 00:19:05;;;;;;;5.23;4.53;;;;;;;;;;5026849;28;21013;-87
2021/05/15 00:21:31;;;;;;;4.50;3.93;;;;;;;;;;5043033;28;20402;-87
2021/05/15 00:23:58;;;;;;;5.67;5.10;;;;;;;;;;5026370;28;20413;-86
2021/05/15 00:26:25;;;;;;;6.60;4.83;;;;;;;;;;5024639;28;20422;-86
2021/05/15 00:29:12;;;;;;;5.67;4.80;;;;;;;;;;5041638;28;20412;-86
2021/05/15 00:31:59;;;;;;;6.60;6.00;;;;;;;;;;5051447;28;20505;-85
2021/05/15 00:34:24;;;;;;;5.70;5.20;;;;;;;;;;5057791;28;20450;-87
2021/05/15 00:37:00;;;;;;;6.13;5.53;;;;;;;;;;5042703;28;20452;-87
2021/05/15 00:39:33;;;;;;;6.67;5.43;;;;;;;;;;5056765;28;20394;-87
2021/05/15 00:42:24;;;;;;;7.20;5.17;;;;;;;;;;5025927;28;20413;-86
2021/05/15 00:44:57;;;;;;;6.17;5.43;;;;;;;;;;5030482;28;20481;-86
2021/05/15 00:47:33;;;;;;;6.57;6.07;;;;;;;;;;5047398;28;20588;-86
2021/05/15 00:50:20;;;;;;;6.53;5.90;;;;;;;;;;5050104;28;20440;-86
2021/05/15 00:53:05;;;;;;;7.73;7.13;;;;;;;;;;5033195;28;20423;-87
2021/05/15 00:55:39;;;;;;;6.10;5.50;;;;;;;;;;5048934;28;21018;-87
2021/05/15 00:58:13;;;;;;;6.47;5.90;;;;;;;;;;5012195;28;20793;-87
2021/05/15 01:00:45;;;;;;;7.10;6.13;;;;;;;;;;5042019;28;20867;-87
2021/05/15 01:03:42;;;;;;;7.20;6.50;;;;;;;;;;5041845;28;20412;-87
2021/05/15 01:06:33;;;;;;;6.93;6.10;;;;;;;;;;5042056;28;20394;-86
2021/05/15 01:09:16;;;;;;;5.93;5.33;;;;;;;;;;5030123;28;20419;-86
2021/05/15 01:11:54;;;;;;;6.93;6.30;;;;;;;;;;5030185;28;20413;-86
2021/05/15 01:14:35;;;;;;;7.17;6.63;;;;;;;;;;5045280;28;20520;-88
2021/05/15 01:17:17;;;;;;;8.50;6.60;;;;;;;;;;5026871;28;20443;-86
2021/05/15 01:20:31;;;;;;;;;;;;;;;;;;;;;
2021/05/15 01:23:39;;;;;;;6.67;6.10;;;;;;;;;;5042610;28;20413;-86
2021/05/15 01:26:20;;;;;;;7.10;6.40;;;;;;;;;;5044516;28;20431;-86
2021/05/15 01:29:05;;;;;;;7.07;6.33;;;;;;;;;;5027337;28;20406;-86
2021/05/15 01:31:37;;;;;;;5.80;5.30;;;;;;;;;;5024220;28;20409;-86
2021/05/15 01:34:09;;;;;;;8.50;6.70;;;;;;;;;;5023665;28;20470;-86
2021/05/15 01:36:58;;;;;;;6.53;5.67;;;;;;;;;;5024398;28;20426;-86
2021/05/15 01:42:49;;;;;;;9.03;7.57;;;;;;;;;;4993634;28;20403;-85
2021/05/15 01:45:26;;;;;;;5.60;5.10;;;;;;;;;;5012408;28;20434;-85
2021/05/15 01:48:17;;;;;;;8.10;7.00;;;;;;;;;;4998470;28;20472;-86
2021/05/15 01:51:12;;;;;;;6.67;6.10;;;;;;;;;;4996259;28;20451;-83
2021/05/15 01:53:40;;;;;;;7.90;5.67;;;;;;;;;;4998667;28;21019;-84
2021/05/15 01:56:10;;;;;;;7.53;6.73;;;;;;;;;;4998656;28;20944;-86
2021/05/15 01:58:40;;;;;;;10.27;6.77;;;;;;;;;;5003721;28;20432;-85
2021/05/15 02:01:07;;;;;;;6.13;5.53;;;;;;;;;;5041098;28;20421;-86
2021/05/15 02:03:56;;;;;;;6.20;5.70;;;;;;;;;;5046607;28;20413;-88
2021/05/15 02:06:34;;;;;;;8.43;7.70;;;;;;;;;;5006238;28;20414;-87
2021/05/15 02:09:31;;;;;;;6.20;5.50;;;;;;;;;;5021731;28;20469;-87
2021/05/15 02:12:08;;;;;;;6.90;6.20;;;;;;;;;;5042285;28;20399;-87
2021/05/15 02:14:37;;;;;;;6.97;6.30;;;;;;;;;;5054267;28;20457;-86
2021/05/15 02:17:10;;;;;;;7.17;5.10;;;;;;;;;;5056850;28;20442;-87
2021/05/15 02:19:42;;;;;;;7.03;6.33;;;;;;;;;;5056605;28;20478;-87
2021/05/15 02:22:09;;;;;;;7.23;6.50;;;;;;;;;;5029035;28;20402;-87
2021/05/15 02:24:41;;;;;;;7.03;6.37;;;;;;;;;;5022184;28;20421;-87
2021/05/15 02:27:09;;;;;;;7.90;7.10;;;;;;;;;;5040317;28;20985;-85
2021/05/15 02:29:36;;;;;;;7.40;6.80;;;;;;;;;;5020927;28;20419;-85
2021/05/15 02:32:23;;;;;;;10.97;8.03;;;;;;;;;;5020311;28;20427;-85
2021/05/15 02:34:54;;;;;;;7.43;6.83;;;;;;;;;;5022397;28;20457;-85
2021/05/15 02:37:20;;;;;;;6.53;5.93;;;;;;;;;;5022629;28;20438;-85
2021/05/15 02:39:55;;;;;;;7.60;6.90;;;;;;;;;;5021722;28;20413;-85
2021/05/15 02:42:26;;;;;;;12.00;10.80;;;;;;;;;;5036791;28;20440;-85
2021/05/15 02:45:09;;;;;;;9.37;8.00;;;;;;;;;;5037437;28;20405;-85
2021/05/15 02:47:42;;;;;;;8.73;7.33;;;;;;;;;;5021917;28;20491;-85
2021/05/15 02:50:23;;;;;;;8.47;7.60;;;;;;;;;;5040471;28;20828;-86
2021/05/15 02:52:52;;;;;;;8.40;7.50;;;;;;;;;;5041661;28;20417;-85
2021/05/15 02:55:22;;;;;;;9.27;8.47;;;;;;;;;;5023922;28;20489;-86
2021/05/15 02:58:16;;;;;;;;;;;;;;;;;;;;;
2021/05/15 03:02:01;;;;;;;7.60;6.80;;;;;;;;;;5048156;28;20496;-87
2021/05/15 03:05:25;;;;;;;;;;;;;;;;;;;;;
2021/05/15 03:08:11;;;;;;;10.50;6.87;;;;;;;;;;5041862;28;20445;-86
2021/05/15 03:10:38;;;;;;;6.67;6.07;;;;;;;;;;5043558;28;20949;-85
2021/05/15 03:13:13;;;;;;;7.40;6.80;;;;;;;;;;5042752;28;20405;-86
2021/05/15 03:15:42;;;;;;;7.87;7.27;;;;;;;;;;5042860;28;20545;-86
2021/05/15 03:18:11;;;;;;;11.73;7.67;;;;;;;;;;5043020;28;20499;-87
2021/05/15 03:20:46;;;;;;;8.30;7.60;;;;;;;;;;5043648;28;20462;-86
2021/05/15 03:23:16;;;;;;;7.50;6.80;;;;;;;;;;5027213;28;20430;-87
2021/05/15 03:25:45;;;;;;;6.80;6.20;;;;;;;;;;5024772;28;20496;-87
2021/05/15 03:28:16;;;;;;;7.73;7.03;;;;;;;;;;5043685;28;20441;-86
2021/05/15 03:30:47;;;;;;;8.13;7.43;;;;;;;;;;5027851;28;20445;-84
2021/05/15 03:33:27;;;;;;;9.23;6.93;;;;;;;;;;5051293;28;20389;-85
2021/05/15 03:35:56;;;;;;;8.67;7.90;;;;;;;;;;5055867;28;20475;-86
2021/05/15 03:38:41;;;;;;;9.50;8.70;;;;;;;;;;5042142;28;20444;-85
2021/05/15 03:41:10;;;;;;;8.67;7.87;;;;;;;;;;5058332;28;20429;-85
2021/05/15 03:43:39;;;;;;;9.93;9.00;;;;;;;;;;5058006;28;20449;-86
2021/05/15 03:46:09;;;;;;;10.07;9.20;;;;;;;;;;5057478;28;20422;-85
2021/05/15 03:48:42;;;;;;;8.40;7.60;;;;;;;;;;5054844;28;20436;-86
2021/05/15 03:51:11;;;;;;;7.47;6.77;;;;;;;;;;5044148;28;20398;-86
2021/05/15 03:53:37;;;;;;;6.70;6.13;;;;;;;;;;5050047;28;20440;-85
2021/05/15 03:56:10;;;;;;;6.70;6.10;;;;;;;;;;5057463;28;20464;-86
2021/05/15 03:58:42;;;;;;;6.90;6.17;;;;;;;;;;5059007;28;20385;-85
2021/05/15 04:01:08;;;;;;;7.27;6.57;;;;;;;;;;5051822;28;20429;-84
2021/05/15 04:03:34;;;;;;;6.93;5.93;;;;;;;;;;5040100;28;20407;-85
2021/05/15 04:06:01;;;;;;;11.10;6.70;;;;;;;;;;5042074;28;20422;-86
2021/05/15 04:08:29;;;;;;;7.77;5.67;;;;;;;;;;5043563;28;20948;-86
2021/05/15 04:11:02;;;;;;;5.40;5.00;;;;;;;;;;5043434;28;20390;-86
2021/05/15 04:13:38;;;;;;;6.37;5.77;;;;;;;;;;5040621;28;20448;-85
2021/05/15 04:19:00;;;;;;;;;;;;;;;;;;;;;
2021/05/15 04:21:54;;;;;;;;;;;;;;;;;;;;;
2021/05/15 04:24:18;;;;;;;5.33;4.70;;;;;;;;;;5041105;28;20422;-86
2021/05/15 04:26:47;;;;;;;5.60;4.63;;;;;;;;;;5046264;28;20424;-87
2021/05/15 04:29:22;;;;;;;4.60;4.20;;;;;;;;;;5042491;28;20442;-88
2021/05/15 04:31:49;;;;;;;4.90;4.37;;;;;;;;;;5042741;28;20537;-87
2021/05/15 04:34:18;;;;;;;4.00;3.70;;;;;;;;;;5041865;28;20465;-86
2021/05/15 04:36:44;;;;;;;6.47;5.00;;;;;;;;;;5041856;28;20440;-86
2021/05/15 04:39:13;;;;;;;5.47;4.97;;;;;;;;;;5023926;28;20398;-87
2021/05/15 04:42:03;;;;;;;7.50;6.67;;;;;;;;;;5023310;28;20420;-87
2021/05/15 04:44:58;;;;;;;5.20;4.80;;;;;;;;;;5036927;28;20504;-86
2021/05/15 04:51:41;;;;;;;5.60;5.03;;;;;;;;;;5040863;28;20494;-86
2021/05/15 04:54:23;;;;;;;;;;;;;;;;;;;;;
2021/05/15 04:57:58;;;;;;;5.20;4.80;;;;;;;;;;5043942;28;20433;-85
2021/05/15 05:07:48;;;;;;;;;;;;;;;;;;;;;
2021/05/15 05:18:32;;;;;;;4.83;4.43;;;;;;;;;;5183176;22;20506;-86
2021/05/15 05:28:49;;;;;;;6.30;5.70;;;;;;;;;;4842416;29;20457;-83
2021/05/15 05:31:41;;;;;;;5.67;5.17;;;;;;;;;;4946788;23;20571;-84
2021/05/15 05:34:10;;;;;;;5.67;5.17;;;;;;;;;;5064983;28;20537;-85
2021/05/15 05:36:37;;;;;;;6.73;5.90;;;;;;;;;;5101606;28;20410;-83
2021/05/15 05:39:06;;;;;;;6.47;6.07;;;;;;;;;;5087706;28;20456;-85
2021/05/15 05:41:32;;;;;;;6.87;6.37;;;;;;;;;;5094475;28;20428;-83
2021/05/15 05:43:58;;;;;;;7.73;7.03;;;;;;;;;;5107528;28;20414;-83
2021/05/15 05:46:24;;;;;;;6.87;6.23;;;;;;;;;;5104993;28;20466;-83
2021/05/15 05:48:50;;;;;;;9.00;8.20;;;;;;;;;;5067011;28;20517;-83
2021/05/15 05:51:17;;;;;;;7.67;7.07;;;;;;;;;;5092252;28;20426;-83
2021/05/15 05:53:43;;;;;;;6.77;6.17;;;;;;;;;;5084006;28;20919;-83
2021/05/15 05:56:09;;;;;;;8.93;8.13;;;;;;;;;;5067469;28;20454;-83
2021/05/15 05:58:35;;;;;;;10.47;9.43;;;;;;;;;;5085098;28;20406;-83
2021/05/15 06:01:01;;;;;;;9.20;8.30;;;;;;;;;;5084887;28;20452;-84
2021/05/15 06:03:27;;;;;;;9.30;8.60;;;;;;;;;;5083307;28;20405;-84
2021/05/15 06:05:53;;;;;;;6.93;6.33;;;;;;;;;;5066263;28;20411;-84
2021/05/15 06:08:20;;;;;;;7.30;6.60;;;;;;;;;;5081489;28;20421;-84
2021/05/15 06:10:47;;;;;;;7.90;7.30;;;;;;;;;;5081979;28;20402;-85
2021/05/15 06:13:14;;;;;;;7.63;6.87;;;;;;;;;;5082378;28;20418;-83
2021/05/15 06:15:41;;;;;;;6.93;6.30;;;;;;;;;;5064274;28;20483;-84
2021/05/15 06:18:07;;;;;;;6.93;6.40;;;;;;;;;;5063895;28;20426;-83
2021/05/15 06:20:43;;;;;;;;;;;;;;;;;;;;;
2021/05/15 06:23:10;;;;;;;6.00;5.60;;;;;;;;;;5100343;28;20414;-84
2021/05/15 06:25:36;;;;;;;6.90;6.00;;;;;;;;;;5086329;28;20453;-83
2021/05/15 06:28:08;;;;;;;7.80;7.13;;;;;;;;;;5068355;28;20415;-84
2021/05/15 06:30:40;;;;;;;8.40;7.70;;;;;;;;;;5101699;28;20470;-84
2021/05/15 06:33:06;;;;;;;12.50;7.53;;;;;;;;;;5083909;28;20432;-84
2021/05/15 06:35:33;;;;;;;9.60;7.27;;;;;;;;;;5066667;28;20459;-84
2021/05/15 06:37:59;;;;;;;7.93;7.23;;;;;;;;;;5083271;28;20422;-84
2021/05/15 06:40:26;;;;;;;7.10;6.50;;;;;;;;;;5083687;28;20482;-84
2021/05/15 06:42:52;;;;;;;7.27;6.67;;;;;;;;;;5083217;28;20456;-84
2021/05/15 06:45:18;;;;;;;7.67;7.07;;;;;;;;;;5084182;28;20920;-84
2021/05/15 06:47:44;;;;;;;8.13;7.33;;;;;;;;;;5102249;28;20391;-84
2021/05/15 06:50:11;;;;;;;6.87;6.37;;;;;;;;;;5095963;28;20440;-84
2021/05/15 06:52:37;;;;;;;8.70;8.00;;;;;;;;;;5088478;28;20441;-84
2021/05/15 06:55:06;;;;;;;7.37;6.87;;;;;;;;;;5084352;28;20500;-85
2021/05/15 06:57:32;;;;;;;8.97;6.47;;;;;;;;;;5082159;28;20415;-84
2021/05/15 07:00:03;;;;;;;7.43;6.77;;;;;;;;;;5082615;28;20396;-84
2021/05/15 07:02:30;;;;;;;9.17;8.47;;;;;;;;;;5082700;28;20441;-84
2021/05/15 07:05:14;;;;;;;8.63;7.73;;;;;;;;;;5082917;28;20415;-83
2021/05/15 07:08:21;;;;;;;6.63;5.90;;;;;;;;;;5083061;28;20767;-85
2021/05/15 07:10:52;;;;;;;10.90;8.40;;;;;;;;;;5015674;22;20407;-86
2021/05/15 07:13:22;;;;;;;8.63;7.93;;;;;;;;;;5044770;28;20484;-84
2021/05/15 07:15:50;;;;;;;9.13;8.17;;;;;;;;;;5044426;28;20456;-84
2021/05/15 07:18:16;;;;;;;7.03;6.40;;;;;;;;;;5061924;28;20761;-84
2021/05/15 07:20:47;;;;;;;11.63;10.23;;;;;;;;;;5042491;28;20409;-85
2021/05/15 07:23:13;;;;;;;8.70;7.93;;;;;;;;;;5029420;28;20785;-83
2021/05/15 07:25:39;;;;;;;8.67;7.97;;;;;;;;;;5048649;28;20417;-84
2021/05/15 07:28:11;;;;;;;8.43;7.80;;;;;;;;;;5029691;28;20494;-85
2021/05/15 07:30:44;;;;;;;8.33;7.73;;;;;;;;;;5047019;28;20417;-84
2021/05/15 07:33:13;;;;;;;8.40;7.70;;;;;;;;;;5044316;28;20431;-83
2021/05/15 07:35:39;;;;;;;9.20;8.57;;;;;;;;;;5045909;28;20551;-82
2021/05/15 07:38:06;;;;;;;12.67;11.57;;;;;;;;;;5046076;28;20501;-84
2021/05/15 07:40:32;;;;;;;10.43;9.47;;;;;;;;;;5046308;28;20428;-83
2021/05/15 07:50:16;;;;;;;8.03;7.30;;;;;;;;;;5065408;28;20400;-82
2021/05/15 07:52:43;;;;;;;11.60;8.60;;;;;;;;;;5044939;28;20826;-83
2021/05/15 07:55:09;;;;;;;11.40;10.50;;;;;;;;;;5045382;28;20448;-84
2021/05/15 07:57:38;;;;;;;8.80;8.10;;;;;;;;;;5063433;28;20409;-82
2021/05/15 08:00:05;;;;;;;8.70;7.90;;;;;;;;;;5043559;28;20401;-85
2021/05/15 08:02:38;;;;;;;8.87;8.07;;;;;;;;;;5064357;28;20509;-84
2021/05/15 08:05:05;;;;;;;9.03;8.33;;;;;;;;;;5030392;28;20436;-84
2021/05/15 08:07:34;;;;;;;7.40;6.73;;;;;;;;;;5033957;28;20825;-85
2021/05/15 08:10:00;;;;;;;7.43;6.80;;;;;;;;;;5067508;28;20530;-84
2021/05/15 08:12:26;;;;;;;8.13;7.47;;;;;;;;;;5047054;28;20480;-84
2021/05/15 08:15:06;;;;;;;8.33;7.73;;;;;;;;;;5034503;28;20453;-84
2021/05/15 08:17:36;;;;;;;9.17;8.40;;;;;;;;;;5056246;28;20396;-84
2021/05/15 08:20:47;;;;;;;9.43;8.70;;;;;;;;;;5040051;28;20402;-86
2021/05/15 08:23:36;;;;;;;11.20;10.20;;;;;;;;;;5047881;28;20435;-83
2021/05/15 08:26:06;;;;;;;10.47;9.50;;;;;;;;;;5042633;28;20463;-83
2021/05/15 08:28:38;;;;;;;9.40;8.77;;;;;;;;;;5040680;28;20417;-83
2021/05/15 08:31:07;;;;;;;10.90;10.00;;;;;;;;;;5041061;28;20439;-84
2021/05/15 08:33:33;;;;;;;10.37;9.37;;;;;;;;;;5059393;28;20885;-84
2021/05/15 08:36:05;;;;;;;11.13;10.13;;;;;;;;;;5042235;28;20480;-83
2021/05/15 08:38:38;;;;;;;10.97;9.97;;;;;;;;;;5042096;28;20570;-81
2021/05/15 08:41:05;;;;;;;9.90;9.00;;;;;;;;;;5059450;28;20467;-81
2021/05/15 08:43:33;;;;;;;10.63;9.53;;;;;;;;;;5047679;28;20492;-81
2021/05/15 08:46:00;;;;;;;9.80;8.90;;;;;;;;;;5064943;28;20413;-83
2021/05/15 08:48:29;;;;;;;9.90;9.10;;;;;;;;;;5061339;28;20405;-82
2021/05/15 08:50:58;;;;;;;10.50;9.70;;;;;;;;;;5058127;28;20938;-80
2021/05/15 08:53:24;;;;;;;10.40;9.60;;;;;;;;;;5041537;28;20397;-81
2021/05/15 08:55:52;;;;;;;12.30;10.93;;;;;;;;;;5040961;28;20452;-82
2021/05/15 08:58:21;;;;;;;10.83;9.80;;;;;;;;;;5025609;28;20754;-83
2021/05/15 09:00:51;;;;;;;9.80;8.90;;;;;;;;;;5041239;28;20432;-83
2021/05/15 09:03:18;;;;;;;9.70;8.20;;;;;;;;;;5043995;28;20432;-83
2021/05/15 09:05:46;;;;;;;13.70;8.80;;;;;;;;;;5043988;28;20979;-84
2021/05/15 09:08:24;;;;;;;10.67;9.73;;;;;;;;;;5138081;27;20311;-84
2021/05/15 09:10:51;;;;;;;10.03;9.33;;;;;;;;;;5114633;28;20402;-84
2021/05/15 09:13:21;;;;;;;9.43;8.63;;;;;;;;;;5094509;28;20513;-84
2021/05/15 09:15:49;;;;;;;10.43;9.63;;;;;;;;;;5095726;28;20412;-84
2021/05/15 09:18:17;;;;;;;8.97;8.17;;;;;;;;;;5079223;28;20403;-83
2021/05/15 09:20:47;;;;;;;8.13;7.43;;;;;;;;;;5101371;28;20412;-82
2021/05/15 09:23:24;;;;;;;8.97;8.17;;;;;;;;;;5105645;28;20426;-83
2021/05/15 09:25:56;;;;;;;8.07;7.37;;;;;;;;;;5103183;28;20409;-82
2021/05/15 09:28:32;;;;;;;9.50;8.67;;;;;;;;;;5103172;28;20415;-84
2021/05/15 09:31:08;;;;;;;7.10;6.43;;;;;;;;;;5105169;28;20443;-84
2021/05/15 09:33:34;;;;;;;8.20;7.50;;;;;;;;;;5103903;28;20425;-83
2021/05/15 09:36:15;;;;;;;8.93;8.13;;;;;;;;;;5103935;28;20419;-84
2021/05/15 09:38:41;;;;;;;8.07;7.40;;;;;;;;;;5098315;28;20415;-84
2021/05/15 09:41:07;;;;;;;7.83;7.13;;;;;;;;;;5097058;28;20523;-84
2021/05/15 09:43:37;;;;;;;6.53;6.03;;;;;;;;;;5098717;28;20414;-86
2021/05/15 09:46:24;;;;;;;5.33;4.93;;;;;;;;;;5098841;28;20439;-84
2021/05/15 09:48:57;;;;;;;6.10;5.60;;;;;;;;;;5102819;28;20422;-84
2021/05/15 09:51:23;;;;;;;5.07;4.57;;;;;;;;;;5101648;28;20433;-85
2021/05/15 09:53:49;;;;;;;3.67;3.37;;;;;;;;;;5098594;28;20432;-85
2021/05/15 09:56:29;;;;;;;5.63;5.03;;;;;;;;;;5099849;28;20417;-84
2021/05/15 09:58:58;;;;;;;5.33;4.83;;;;;;;;;;5101471;28;20395;-84
2021/05/15 10:01:25;;;;;;;4.87;3.77;;;;;;;;;;5104823;28;20431;-84
2021/05/15 10:04:02;;;;;;;4.53;3.77;;;;;;;;;;5106426;28;20431;-84
2021/05/15 10:06:29;;;;;;;3.90;3.60;;;;;;;;;;5086685;28;20489;-85
2021/05/15 10:08:58;;;;;;;2.67;2.47;;;;;;;;;;5003224;28;20426;-84
2021/05/15 10:11:25;;;;;;;4.17;3.77;;;;;;;;;;5017688;28;20455;-84
2021/05/15 10:13:51;;;;;;;2.50;2.23;;;;;;;;;;5016880;28;20428;-85
2021/05/15 10:16:21;;;;;;;3.30;3.00;;;;;;;;;;4999389;28;20419;-84
2021/05/15 10:18:55;;;;;;;4.03;3.73;;;;;;;;;;5006809;28;20422;-85
2021/05/15 10:21:21;;;;;;;4.67;3.77;;;;;;;;;;5000965;28;20442;-85
2021/05/15 10:23:51;;;;;;;3.60;3.30;;;;;;;;;;4985845;28;20425;-83
2021/05/15 10:26:21;;;;;;;2.97;2.47;;;;;;;;;;5002014;28;20451;-83
2021/05/15 10:29:07;;;;;;;4.63;2.40;;;;;;;;;;5001535;28;20423;-83
2021/05/15 10:31:40;;;;;;;2.03;1.83;;;;;;;;;;5004418;28;20436;-84
2021/05/15 10:34:07;;;;;;;1.63;1.50;;;;;;;;;;5000441;28;20426;-83
2021/05/15 10:36:43;;;;;;;2.30;2.20;;;;;;;;;;5001360;28;20411;-85
2021/05/15 10:39:12;;;;;;;4.80;2.03;;;;;;;;;;5002221;28;20737;-84
2021/05/15 10:41:47;;;;;;;3.33;2.17;;;;;;;;;;5001315;28;20442;-83
2021/05/15 10:44:20;;;;;;;2.53;2.37;;;;;;;;;;5002154;28;20404;-85
2021/05/15 10:46:50;;;;;;;3.00;2.80;;;;;;;;;;4984214;28;20479;-84
2021/05/15 10:49:18;;;;;;;2.30;1.83;;;;;;;;;;5001397;28;20412;-84
2021/05/15 10:51:49;;;;;;;2.50;2.10;;;;;;;;;;5003408;28;20436;-84
2021/05/15 10:54:43;;;;;;;3.10;2.43;;;;;;;;;;5001843;28;20805;-82
2021/05/15 10:57:13;;;;;;;1.73;1.47;;;;;;;;;;5001196;28;20396;-84
2021/05/15 10:59:43;;;;;;;4.03;2.67;;;;;;;;;;5001454;28;20424;-84
2021/05/15 11:02:49;;;;;;;;;;;;;;;;;;;;;
2021/05/15 11:05:42;;;;;;;3.20;2.30;;;;;;;;;;5051655;28;20414;-84
2021/05/15 11:08:36;;;;;;;2.07;1.60;;;;;;;;;;5001091;28;20462;-85
2021/05/15 11:11:11;;;;;;;1.77;1.67;;;;;;;;;;5001259;28;20423;-85
2021/05/15 11:13:52;;;;;;;3.50;2.70;;;;;;;;;;5002951;28;20395;-85
2021/05/15 11:16:30;;;;;;;4.17;2.13;;;;;;;;;;5001801;28;20477;-85
2021/05/15 11:19:05;;;;;;;6.57;2.77;;;;;;;;;;5003705;28;20487;-84
2021/05/15 11:21:37;;;;;;;1.33;1.23;;;;;;;;;;5009657;28;20483;-83
2021/05/15 11:24:09;;;;;;;3.53;2.43;;;;;;;;;;5009358;28;20428;-84
2021/05/15 11:26:37;;;;;;;1.87;1.30;;;;;;;;;;5007060;28;20467;-83
2021/05/15 11:29:06;;;;;;;4.00;2.60;;;;;;;;;;5006335;28;20809;-84
2021/05/15 12:53:34;;;;;;;;;;;;;;;;;;;;;
2021/05/15 12:56:53;;;;;;;1.57;1.47;;;;;;;;;;5005012;28;20457;-89
2021/05/15 13:07:40;;;;;;;2.10;1.20;;;;;;;;;;4883564;29;20472;-87
2021/05/15 13:14:23;;;;;;;1.93;1.70;;;;;;;;;;4850568;29;20412;-87
2021/05/15 13:28:42;;;;;;;;;;;;;;;;;;;;;
2021/05/15 14:04:32;;;;;;;;;;;;;;;;;;;;;
2021/05/15 14:07:21;;;;;;;5.47;4.97;;;;;;;;;;5012669;28;20479;-86
2021/05/15 14:46:38;;;;;;;3.63;2.30;;;;;;;;;;5482597;22;20562;-88
2021/05/15 15:17:17;;;;;;;1.10;0.90;;;;;;;;;;1328487;26;20477;-89
2021/05/15 15:20:09;;;;;;;2.50;1.20;;;;;;;;;;4966739;29;20416;-87
2021/05/15 15:23:04;;;;;;;8.43;4.67;;;;;;;;;;4965749;28;20429;-87
2021/05/15 15:25:41;;;;;;;1.40;1.30;;;;;;;;;;4963648;29;20437;-88
2021/05/15 15:28:24;;;;;;;1.20;1.00;;;;;;;;;;4952685;29;20470;-86
2021/05/15 15:34:42;;;;;;;2.20;1.33;;;;;;;;;;4777963;26;20478;-88
2021/05/15 15:37:12;;;;;;;2.07;1.47;;;;;;;;;;5005584;28;20422;-88
2021/05/15 15:40:10;;;;;;;2.10;1.90;;;;;;;;;;5025235;28;20428;-89
2021/05/15 15:42:54;;;;;;;10.43;6.70;;;;;;;;;;5014752;28;20433;-87
2021/05/15 15:49:24;;;;;;;3.40;1.47;;;;;;;;;;5005544;28;20447;-86
2021/05/15 15:51:52;;;;;;;6.73;1.90;;;;;;;;;;4972958;28;20490;-87
2021/05/15 15:54:18;;;;;;;1.63;1.20;;;;;;;;;;4987413;28;20472;-87
2021/05/15 15:56:47;;;;;;;2.07;1.20;;;;;;;;;;4971532;28;20403;-88
2021/05/15 15:59:13;;;;;;;2.07;1.67;;;;;;;;;;4986183;28;20411;-88
2021/05/15 16:01:42;;;;;;;2.90;1.63;;;;;;;;;;4971341;28;20432;-87
2021/05/15 16:04:31;;;;;;;3.00;2.50;;;;;;;;;;5003777;28;20399;-88
2021/05/15 16:07:06;;;;;;;1.93;1.47;;;;;;;;;;4968338;28;20527;-88
2021/05/15 16:10:05;;;;;;;2.00;1.50;;;;;;;;;;4968700;28;20419;-87
2021/05/15 16:12:34;;;;;;;2.90;2.70;;;;;;;;;;4970252;28;20558;-87
2021/05/15 16:15:10;;;;;;;3.00;2.30;;;;;;;;;;4969009;28;20412;-86
2021/05/15 16:17:39;;;;;;;4.10;1.97;;;;;;;;;;4970277;28;20422;-87
2021/05/15 16:20:22;;;;;;;2.80;2.00;;;;;;;;;;4981887;28;20407;-89
2021/05/15 16:23:06;;;;;;;2.20;1.70;;;;;;;;;;5003972;28;20462;-87
2021/05/15 16:25:40;;;;;;;6.50;4.67;;;;;;;;;;5002953;28;20529;-86
2021/05/15 16:28:15;;;;;;;2.80;2.50;;;;;;;;;;5006040;28;20453;-87
2021/05/15 16:30:47;;;;;;;3.10;2.80;;;;;;;;;;4990251;28;20484;-89
2021/05/15 16:33:18;;;;;;;1.50;1.40;;;;;;;;;;4994682;28;20439;-88
2021/05/15 16:36:02;;;;;;;2.47;1.43;;;;;;;;;;5011279;28;20416;-86
2021/05/15 16:38:31;;;;;;;1.60;1.50;;;;;;;;;;5007440;28;20416;-87
2021/05/15 16:41:05;;;;;;;1.87;1.30;;;;;;;;;;5006783;28;20506;-88
2021/05/15 16:45:10;;;;;;;1.93;1.33;;;;;;;;;;5004579;28;20400;-89
2021/05/15 16:47:21;;;;;;;2.80;1.00;;;;;;;;;;4978711;28;20524;-89
2021/05/15 16:50:13;;;;;;;2.20;1.20;;;;;;;;;;4967356;28;20433;-87
2021/05/15 16:53:10;;;;;;;2.27;2.07;;;;;;;;;;4967325;28;20429;-89
2021/05/15 16:55:37;;;;;;;1.30;1.20;;;;;;;;;;4964869;28;20409;-88
2021/05/15 16:58:13;;;;;;;1.53;1.10;;;;;;;;;;4988825;28;20471;-87
2021/05/15 17:00:39;;;;;;;1.60;1.10;;;;;;;;;;5008534;28;20415;-87
2021/05/15 17:03:06;;;;;;;0.93;0.80;;;;;;;;;;5010374;28;20822;-88
2021/05/15 17:05:32;;;;;;;1.17;1.07;;;;;;;;;;5007315;28;20515;-86
2021/05/15 17:08:21;;;;;;;1.00;0.90;;;;;;;;;;5008837;28;20455;-88
2021/05/15 17:10:48;;;;;;;1.23;1.13;;;;;;;;;;5014984;28;20487;-88
2021/05/15 17:13:17;;;;;;;1.87;1.20;;;;;;;;;;5000200;28;20436;-87
2021/05/15 17:15:55;;;;;;;3.90;2.00;;;;;;;;;;5000345;28;20392;-87
2021/05/15 17:18:58;;;;;;;;;;;;;;;;;;;;;
2021/05/15 17:21:33;;;;;;;11.13;9.23;;;;;;;;;;4993623;28;20436;-87
2021/05/15 17:24:12;;;;;;;1.97;1.53;;;;;;;;;;4989262;28;20790;-85
2021/05/15 17:27:37;;;;;;;2.93;1.67;;;;;;;;;;4946124;29;20477;-86
2021/05/15 17:34:28;;;;;;;;;;;;;;;;;;;;;
2021/05/15 17:37:20;;;;;;;;;;;;;;;;;;;;;
2021/05/15 17:40:11;;;;;;;1.13;1.03;;;;;;;;;;4964802;29;20421;-85
2021/05/15 17:42:38;;;;;;;2.07;1.50;;;;;;;;;;4951583;29;20453;-84
2021/05/15 17:45:04;;;;;;;1.53;1.40;;;;;;;;;;4961885;29;20397;-86
2021/05/15 17:47:31;;;;;;;1.83;1.73;;;;;;;;;;4951965;29;20912;-87
2021/05/15 17:50:07;;;;;;;3.07;2.80;;;;;;;;;;4964878;29;20500;-86
2021/05/15 17:56:54;;;;;;;1.73;1.10;;;;;;;;;;4908529;29;20561;-88
2021/05/15 18:00:04;;;;;;;2.80;2.10;;;;;;;;;;4910872;29;20978;-88
2021/05/15 18:02:34;;;;;;;2.03;1.83;;;;;;;;;;4894443;29;20439;-86
2021/05/15 19:25:22;;;;;;;4.27;3.03;;;;;;;;;;4949144;29;20423;-85
2021/05/15 19:27:58;;;;;;;5.70;3.23;;;;;;;;;;4963087;29;20467;-86
2021/05/15 19:30:45;;;;;;;5.10;4.70;;;;;;;;;;4963823;29;20416;-85
2021/05/15 19:33:19;;;;;;;10.33;7.87;;;;;;;;;;4965055;28;20446;-86
2021/05/15 19:36:19;;;;;;;2.97;2.77;;;;;;;;;;4948257;29;20401;-85
2021/05/15 19:50:12;;;;;;;5.13;4.63;;;;;;;;;;4575986;22;20528;-87
2021/05/15 19:52:58;;;;;;;5.03;2.67;;;;;;;;;;5001380;28;20394;-86
2021/05/15 21:30:02;;;;;;;3.37;2.43;;;;;;;;;;1285869;23;20746;-85
2021/05/15 21:43:20;;;;;;;3.13;2.20;;;;;;;;;;5013075;22;21014;-86
2021/05/15 21:45:49;;;;;;;2.40;2.20;;;;;;;;;;4998065;28;20423;-86
2021/05/15 21:48:21;;;;;;;1.97;1.87;;;;;;;;;;4980685;28;20452;-86
2021/05/15 21:50:47;;;;;;;2.23;2.03;;;;;;;;;;4997131;28;20886;-86
2021/05/15 21:53:13;;;;;;;3.07;2.10;;;;;;;;;;4996995;28;20487;-86
2021/05/15 21:55:40;;;;;;;2.97;2.77;;;;;;;;;;4996581;28;20443;-86
2021/05/15 21:58:07;;;;;;;3.60;2.50;;;;;;;;;;4997250;28;20428;-85
2021/05/15 22:00:36;;;;;;;2.10;1.90;;;;;;;;;;4987505;28;20499;-85
2021/05/15 22:03:03;;;;;;;2.30;2.10;;;;;;;;;;4990767;28;20458;-85
2021/05/15 22:05:29;;;;;;;2.67;2.33;;;;;;;;;;4998639;28;20545;-85
2021/05/15 22:07:55;;;;;;;2.50;2.30;;;;;;;;;;4998440;28;20459;-85
2021/05/15 22:10:21;;;;;;;2.63;2.43;;;;;;;;;;4997754;28;20822;-86
2021/05/15 22:12:56;;;;;;;9.60;5.50;;;;;;;;;;4998034;28;20444;-85
2021/05/15 22:15:26;;;;;;;3.40;2.57;;;;;;;;;;4988781;28;20774;-85
2021/05/15 22:17:58;;;;;;;3.33;2.57;;;;;;;;;;5007779;28;20467;-86
2021/05/15 22:24:04;;;;;;;2.87;2.67;;;;;;;;;;5032215;23;20494;-86
2021/05/15 22:26:49;;;;;;;2.87;2.57;;;;;;;;;;4996269;28;20409;-87
2021/05/15 22:30:10;;;;;;;2.90;2.60;;;;;;;;;;5013861;28;20385;-87
2021/05/15 22:32:27;;;;;;;3.17;2.73;;;;;;;;;;5002463;28;20423;-86
2021/05/15 22:34:57;;;;;;;2.70;1.93;;;;;;;;;;4987039;28;20422;-86
2021/05/15 22:37:29;;;;;;;3.90;3.40;;;;;;;;;;5046227;23;20520;-86
2021/05/15 22:39:59;;;;;;;3.77;3.47;;;;;;;;;;4970691;28;20468;-86
2021/05/15 22:42:45;;;;;;;;;;;;;;;;;;;;;
2021/05/15 22:45:18;;;;;;;4.40;4.00;;;;;;;;;;4972302;28;20417;-86
2021/05/15 22:48:15;;;;;;;4.20;3.87;;;;;;;;;;4950437;29;20920;-86
2021/05/15 22:51:00;;;;;;;7.10;5.73;;;;;;;;;;4951853;29;20418;-86
2021/05/15 22:53:32;;;;;;;5.60;5.10;;;;;;;;;;4934268;29;20478;-87
2021/05/15 22:56:21;;;;;;;4.73;4.30;;;;;;;;;;4950306;29;20435;-86
2021/05/15 22:59:41;;;;;;;5.77;3.80;;;;;;;;;;4950540;29;20469;-87
2021/05/15 23:02:27;;;;;;;5.73;5.10;;;;;;;;;;4939314;29;20442;-86
2021/05/15 23:04:56;;;;;;;3.73;3.43;;;;;;;;;;4950517;29;20414;-87
2021/05/15 23:07:25;;;;;;;4.17;3.77;;;;;;;;;;4951654;29;20458;-85
2021/05/15 23:09:58;;;;;;;3.90;3.60;;;;;;;;;;4955805;29;20395;-86
2021/05/15 23:12:29;;;;;;;6.50;3.33;;;;;;;;;;4939539;29;20422;-85
2021/05/15 23:14:55;;;;;;;3.90;3.60;;;;;;;;;;4952934;29;20415;-85
2021/05/15 23:17:22;;;;;;;3.70;3.40;;;;;;;;;;4947963;29;20435;-83
2021/05/15 23:19:55;;;;;;;3.00;2.80;;;;;;;;;;4948846;29;20422;-87
2021/05/15 23:22:21;;;;;;;2.90;2.70;;;;;;;;;;4948836;29;20522;-85
2021/05/15 23:24:48;;;;;;;3.13;2.93;;;;;;;;;;4949639;29;20442;-86